This is the latest recevied weather packets stored in our database for station/object XE2CT-20. If no packets are shown the sender has not sent any weather packets the latest 10 day(s).
| Time | Temp. | Humidity | Pressure | Rain* | Wind** | Luminosity | Snow |
|---|---|---|---|---|---|---|---|
| 1778041820 | 30.56° C | 59% | 1013 hPa | - | - | - | - |
| 1778040919 | 30.56° C | 59% | 1012 hPa | - | - | - | - |
| 1778040018 | 30.56° C | 59% | 1013 hPa | - | - | - | - |
| 1778039117 | 31.11° C | 58% | 1012 hPa | - | - | - | - |
| 1778038216 | 31.11° C | 57% | 1012 hPa | - | - | - | - |
| 1778037315 | 31.11° C | 57% | 1011 hPa | - | - | - | - |
| 1778036414 | 31.11° C | 57% | 1012 hPa | - | - | - | - |
| 1778035513 | 31.67° C | 56% | 1011 hPa | - | - | - | - |
| 1778034612 | 32.22° C | 54% | 1010 hPa | - | - | - | - |
| 1778033711 | 32.22° C | 54% | 1010 hPa | - | - | - | - |
| 1778032810 | 32.78° C | 52% | 1009 hPa | - | - | - | - |
| 1778031908 | 33.89° C | 49% | 1008 hPa | - | - | - | - |
| 1778031007 | 34.44° C | 45% | 1006 hPa | - | - | - | - |
| 1778030106 | 35° C | 41% | 1004 hPa | - | - | - | - |
| 1778029205 | 35° C | 41% | 1003 hPa | - | - | - | - |
| 1778028304 | 35.56° C | 39% | 1002 hPa | - | - | - | - |
| 1778027402 | 35° C | 39% | 1002 hPa | - | - | - | - |
| 1778026501 | 36.11° C | 37% | 1001 hPa | - | - | - | - |
| 1778025600 | 36.11° C | 37% | 1001 hPa | - | - | - | - |
| 1778024699 | 37.78° C | 33% | 999 hPa | - | - | - | - |
| 1778023798 | 40° C | 29% | 996 hPa | - | - | - | - |
| 1778022897 | 43.89° C | 23% | 991 hPa | - | - | - | - |
| 1778021996 | 42.78° C | 25% | 991 hPa | - | - | - | - |
| 1778021095 | 40.56° C | 28% | 993 hPa | - | - | - | - |
| 1778020194 | 39.44° C | 30% | 994 hPa | - | - | - | - |
* Rain since midnight (hover to see other rain measurements)
** Current wind speed in m/s (hover to see current wind gust speed)